Time;durP1;ratioP1;P1;durP2;ratioP2;P2;SDS_P1;SDS_P2;PMS_P1;PMS_P2;Temp;Humidity;BMP_temperature;BMP_pressure;BME280_temperature;BME280_humidity;BME280_pressure;Samples;Min_cycle;Max_cycle;Signal;HPM_P1;HPM_P2
2022/12/23 00:01:03;;;;;;;1.40;0.40;;;12.90;99.90;;;;;;5049229;28;20025;-74
2022/12/23 00:03:30;;;;;;;0.75;0.75;;;13.40;99.90;;;;;;5051336;28;20020;-74
2022/12/23 00:05:56;;;;;;;0.97;0.60;;;;;;;;;;5054328;28;20017;-74
2022/12/23 00:08:22;;;;;;;0.70;0.60;;;12.80;99.90;;;;;;5050808;28;20267;-73
2022/12/23 00:10:49;;;;;;;0.80;0.63;;;13.10;99.90;;;;;;5056781;28;20029;-74
2022/12/23 00:16:08;;;;;;;0.50;0.50;;;13.00;99.90;;;;;;5050632;28;20068;-74
2022/12/23 00:18:35;;;;;;;0.50;0.50;;;13.00;99.90;;;;;;5048292;28;20381;-74
2022/12/23 00:21:03;;;;;;;0.60;0.60;;;13.10;99.90;;;;;;5049233;28;20108;-73
2022/12/23 00:23:34;;;;;;;0.52;0.52;;;13.10;99.90;;;;;;5048940;28;20032;-74
2022/12/23 00:26:00;;;;;;;0.90;0.90;;;13.30;99.90;;;;;;5050014;28;20100;-74
2022/12/23 00:28:27;;;;;;;1.45;0.70;;;13.10;99.90;;;;;;5046996;28;20441;-74
2022/12/23 00:31:02;;;;;;;0.50;0.50;;;13.10;99.90;;;;;;5056861;28;20020;-74
2022/12/23 00:33:36;;;;;;;2.05;0.80;;;13.20;99.90;;;;;;5046898;28;20169;-74
2022/12/23 00:36:12;;;;;;;3.38;0.90;;;13.00;99.90;;;;;;5055045;28;20012;-73
2022/12/23 00:44:07;;;;;;;1.15;0.80;;;12.90;99.90;;;;;;5045413;28;20059;-74
2022/12/23 00:46:33;;;;;;;1.17;1.08;;;;;;;;;;5046366;28;20029;-73
2022/12/23 00:51:44;;;;;;;0.88;0.60;;;;;;;;;;5052834;28;20066;-74
2022/12/23 00:54:09;;;;;;;0.70;0.65;;;12.60;99.90;;;;;;5046341;28;20681;-74
2022/12/23 00:56:35;;;;;;;0.73;0.68;;;;;;;;;;5059918;28;20103;-74
2022/12/23 00:59:01;;;;;;;1.65;1.15;;;;;;;;;;5046441;28;20013;-74
2022/12/23 01:06:58;;;;;;;1.05;0.70;;;;;;;;;;5053975;28;20032;-73
2022/12/23 01:09:24;;;;;;;1.17;0.90;;;;;;;;;;5051669;28;20053;-73
2022/12/23 01:11:50;;;;;;;0.60;0.60;;;;;;;;;;5045996;28;20458;-73
2022/12/23 01:14:16;;;;;;;1.17;0.88;;;;;;;;;;5048070;28;20096;-74
2022/12/23 01:16:42;;;;;;;1.38;0.60;;;;;;;;;;5062126;28;20021;-74
2022/12/23 01:19:09;;;;;;;0.90;0.90;;;13.40;99.90;;;;;;5049573;28;20043;-73
2022/12/23 01:21:34;;;;;;;0.60;0.60;;;13.00;99.90;;;;;;5061481;28;20405;-74
2022/12/23 01:24:00;;;;;;;0.70;0.70;;;;;;;;;;5053088;28;20037;-74
2022/12/23 01:26:26;;;;;;;0.95;0.70;;;;;;;;;;5056179;28;20024;-74
2022/12/23 01:28:56;;;;;;;1.83;1.17;;;12.60;99.90;;;;;;5066782;28;20039;-75
2022/12/23 01:31:24;;;;;;;0.88;0.88;;;12.80;99.90;;;;;;5054345;28;20013;-73
2022/12/23 01:33:50;;;;;;;0.52;0.50;;;;;;;;;;5062922;28;20451;-74
2022/12/23 01:36:16;;;;;;;0.47;0.47;;;12.60;99.90;;;;;;5053587;28;20029;-73
2022/12/23 01:38:42;;;;;;;0.50;0.50;;;;;;;;;;5057245;28;20497;-74
2022/12/23 01:42:42;;;;;;;0.70;0.63;;;11.30;99.90;;;;;;5050689;28;20064;-73
2022/12/23 01:43:55;;;;;;;1.95;0.80;;;12.70;99.90;;;;;;5052687;28;20059;-74
2022/12/23 01:46:21;;;;;;;2.92;0.55;;;;;;;;;;5052724;28;20021;-74
2022/12/23 01:48:50;;;;;;;1.23;0.73;;;12.50;99.90;;;;;;5053164;28;20021;-73
2022/12/23 01:51:25;;;;;;;2.10;0.80;;;12.50;99.90;;;;;;5049522;28;20017;-74
2022/12/23 01:53:57;;;;;;;1.52;0.70;;;12.50;99.90;;;;;;5047376;28;20471;-74
2022/12/23 01:56:30;;;;;;;1.10;0.77;;;12.50;99.90;;;;;;5049577;28;20103;-73
2022/12/23 01:59:00;;;;;;;1.52;0.70;;;12.50;99.90;;;;;;5061183;28;20598;-74
2022/12/23 02:04:14;;;;;;;0.82;0.80;;;12.50;99.90;;;;;;5056427;28;20044;-74
2022/12/23 02:09:29;;;;;;;1.00;0.47;;;12.40;99.90;;;;;;5055871;28;20599;-75
2022/12/23 02:12:06;;;;;;;0.75;0.55;;;12.40;99.90;;;;;;5049668;28;20033;-74
2022/12/23 02:17:51;;;;;;;0.40;0.40;;;12.40;99.90;;;;;;5010148;28;20469;-74
2022/12/23 02:20:32;;;;;;;0.30;0.30;;;12.50;99.90;;;;;;5014812;28;20117;-74
2022/12/23 02:23:00;;;;;;;0.40;0.40;;;12.50;99.90;;;;;;5005702;28;20037;-73
2022/12/23 02:25:43;;;;;;;0.50;0.50;;;12.50;99.90;;;;;;5006402;28;20495;-74
2022/12/23 02:28:09;;;;;;;0.30;0.30;;;;;;;;;;5005955;28;20046;-74
2022/12/23 02:30:35;;;;;;;0.50;0.50;;;;;;;;;;5004696;28;20057;-74
2022/12/23 02:33:28;;;;;;;0.70;0.70;;;12.40;99.90;;;;;;5005780;28;20037;-74
2022/12/23 02:35:56;;;;;;;0.50;0.50;;;12.30;99.90;;;;;;4982785;28;20068;-74
2022/12/23 02:38:34;;;;;;;0.85;0.55;;;12.30;99.90;;;;;;5009964;28;20033;-74
2022/12/23 02:41:11;;;;;;;0.40;0.40;;;12.40;99.90;;;;;;5010554;28;20184;-74
2022/12/23 02:43:48;;;;;;;0.73;0.63;;;12.40;99.90;;;;;;5009329;28;20563;-74
2022/12/23 02:46:32;;;;;;;0.50;0.50;;;12.90;99.90;;;;;;5009433;28;20030;-74
2022/12/23 02:49:08;;;;;;;0.50;0.40;;;12.40;99.90;;;;;;5009874;28;20132;-73
2022/12/23 02:51:38;;;;;;;0.93;0.40;;;12.40;99.90;;;;;;4993817;28;20594;-74
2022/12/23 02:54:08;;;;;;;0.40;0.40;;;12.40;99.90;;;;;;5023665;28;20041;-74
2022/12/23 02:56:38;;;;;;;1.13;0.55;;;12.50;99.90;;;;;;5056615;28;20032;-74
2022/12/23 02:59:21;;;;;;;0.50;0.50;;;12.40;99.90;;;;;;5049860;28;20108;-74
2022/12/23 03:01:47;;;;;;;1.45;1.05;;;12.30;99.90;;;;;;5057209;28;20388;-74
2022/12/23 03:04:14;;;;;;;0.63;0.63;;;12.10;99.90;;;;;;5051965;28;20561;-74
2022/12/23 03:06:42;;;;;;;2.38;0.73;;;12.50;99.90;;;;;;5050350;28;20474;-74
2022/12/23 03:09:09;;;;;;;0.55;0.55;;;;;;;;;;5048178;28;20036;-74
2022/12/23 03:11:38;;;;;;;;;;;12.40;99.90;;;;;;5050606;28;20029;-74
2022/12/23 03:14:04;;;;;;;0.60;0.60;;;;;;;;;;5047500;28;20435;-74
2022/12/23 03:16:51;;;;;;;0.57;0.57;;;12.70;99.90;;;;;;5063806;28;20032;-74
2022/12/23 03:19:50;;;;;;;0.40;0.40;;;12.60;99.90;;;;;;5052182;28;20029;-74
2022/12/23 03:22:36;;;;;;;0.82;0.50;;;12.60;99.90;;;;;;4994647;28;20068;-74
2022/12/23 03:25:28;;;;;;;0.40;0.40;;;12.60;99.90;;;;;;4985668;28;20030;-74
2022/12/23 03:27:54;;;;;;;0.68;0.63;;;;;;;;;;4985974;28;20027;-74
2022/12/23 03:30:21;;;;;;;0.50;0.50;;;12.70;99.90;;;;;;4985581;28;20026;-74
2022/12/23 03:32:47;;;;;;;0.77;0.70;;;;;;;;;;4986073;28;20042;-74
2022/12/23 03:35:16;;;;;;;0.70;0.70;;;12.60;99.90;;;;;;4989118;28;20842;-75
2022/12/23 03:37:47;;;;;;;0.40;0.40;;;12.60;99.90;;;;;;4986640;28;20030;-74
2022/12/23 03:40:40;;;;;;;0.40;0.40;;;12.70;99.90;;;;;;4984880;28;20036;-75
2022/12/23 03:43:17;;;;;;;0.40;0.40;;;12.60;99.90;;;;;;4985222;28;20058;-74
2022/12/23 03:45:51;;;;;;;0.88;0.50;;;12.50;99.90;;;;;;4977288;28;20069;-74
2022/12/23 03:48:32;;;;;;;0.85;0.63;;;12.80;99.90;;;;;;4995943;28;20065;-74
2022/12/23 03:51:03;;;;;;;1.38;0.60;;;12.50;99.90;;;;;;4989087;28;20579;-74
2022/12/23 03:53:31;;;;;;;0.52;0.45;;;12.50;99.90;;;;;;4993150;28;20034;-74
2022/12/23 03:56:04;;;;;;;1.90;1.17;;;12.20;99.90;;;;;;4987215;28;20392;-74
2022/12/23 03:58:41;;;;;;;2.25;1.30;;;12.40;99.90;;;;;;5019780;28;20073;-74
2022/12/23 04:01:33;;;;;;;0.63;0.63;;;12.60;99.90;;;;;;5051160;28;20047;-74
2022/12/23 04:04:13;;;;;;;0.77;0.70;;;12.50;99.90;;;;;;5044334;28;20025;-74
2022/12/23 04:06:53;;;;;;;0.40;0.40;;;12.70;99.90;;;;;;5052411;28;20051;-74
2022/12/23 04:09:20;;;;;;;0.50;0.50;;;12.80;99.90;;;;;;5051637;28;20505;-74
2022/12/23 04:11:46;;;;;;;;;;;12.70;99.90;;;;;;5051321;28;20012;-74
2022/12/23 04:14:16;;;;;;;1.63;1.00;;;12.70;99.90;;;;;;5063634;28;19948;-74
2022/12/23 04:16:43;;;;;;;1.90;1.10;;;;;;;;;;5051334;28;20113;-74
2022/12/23 04:19:08;;;;;;;1.17;0.60;;;12.50;99.90;;;;;;5055713;28;20021;-74
2022/12/23 04:21:34;;;;;;;1.67;1.10;;;;;;;;;;5049966;28;20504;-74
2022/12/23 04:24:00;;;;;;;1.00;0.80;;;;;;;;;;5053471;28;20030;-74
2022/12/23 04:26:26;;;;;;;1.13;0.77;;;;;;;;;;5047502;28;20037;-74
2022/12/23 04:28:52;;;;;;;0.57;0.57;;;;;;;;;;5053068;28;20090;-73
2022/12/23 04:31:18;;;;;;;0.75;0.70;;;;;;;;;;5047047;28;20506;-74
2022/12/23 04:33:44;;;;;;;0.95;0.50;;;;;;;;;;5046743;28;20035;-74
2022/12/23 04:36:10;;;;;;;0.65;0.45;;;;;;;;;;5046750;28;20017;-74
2022/12/23 04:38:36;;;;;;;1.63;1.08;;;12.60;99.90;;;;;;5046605;28;20306;-74
2022/12/23 04:41:02;;;;;;;1.92;1.20;;;;;;;;;;5058506;28;20020;-74
2022/12/23 04:43:28;;;;;;;1.67;1.17;;;;;;;;;;5049927;28;20094;-74
2022/12/23 04:45:53;;;;;;;1.42;0.82;;;12.60;99.90;;;;;;5056865;28;20104;-74
2022/12/23 04:48:19;;;;;;;1.80;1.10;;;12.70;99.90;;;;;;5050365;28;20116;-74
2022/12/23 04:50:45;;;;;;;0.70;0.70;;;;;;;;;;5057081;28;20666;-74
2022/12/23 04:53:11;;;;;;;0.98;0.60;;;12.40;99.90;;;;;;5050470;28;20032;-74
2022/12/23 04:55:37;;;;;;;0.50;0.50;;;;;;;;;;5050526;28;20099;-74
2022/12/23 04:58:03;;;;;;;0.57;0.50;;;;;;;;;;5054372;28;20024;-73
2022/12/23 05:00:29;;;;;;;6.47;0.70;;;;;;;;;;5052505;28;20502;-74
2022/12/23 05:02:55;;;;;;;1.73;1.55;;;;;;;;;;5063740;28;20039;-74
2022/12/23 05:05:21;;;;;;;1.50;1.35;;;;;;;;;;5060344;28;20039;-74
2022/12/23 05:07:49;;;;;;;2.67;1.58;;;12.60;99.90;;;;;;5049827;28;20048;-74
2022/12/23 05:10:15;;;;;;;1.67;0.90;;;12.50;99.90;;;;;;5050350;28;20017;-73
2022/12/23 05:12:41;;;;;;;4.20;0.70;;;;;;;;;;5050194;28;20051;-74
2022/12/23 05:15:07;;;;;;;0.60;0.50;;;12.30;99.90;;;;;;5057112;28;20108;-74
2022/12/23 05:17:33;;;;;;;0.60;0.60;;;12.50;99.90;;;;;;5054206;28;20136;-74
2022/12/23 05:19:59;;;;;;;1.05;0.90;;;12.40;99.90;;;;;;5054610;28;20430;-74
2022/12/23 05:22:24;;;;;;;0.80;0.80;;;12.10;99.90;;;;;;5054406;28;20029;-74
2022/12/23 05:24:50;;;;;;;0.45;0.40;;;;;;;;;;5053831;28;20033;-74
2022/12/23 05:27:16;;;;;;;0.40;0.40;;;;;;;;;;5052409;28;20040;-74
2022/12/23 05:29:42;;;;;;;1.25;1.00;;;;;;;;;;5053613;28;20025;-74
2022/12/23 05:32:08;;;;;;;0.68;0.65;;;12.10;99.90;;;;;;5048953;28;20791;-73
2022/12/23 05:34:34;;;;;;;0.65;0.65;;;;;;;;;;5053831;28;20095;-74
2022/12/23 05:37:00;;;;;;;0.60;0.60;;;;;;;;;;5060180;28;20024;-74
2022/12/23 05:39:26;;;;;;;0.95;0.85;;;;;;;;;;5052242;28;20052;-74
2022/12/23 05:41:52;;;;;;;0.82;0.60;;;11.60;99.90;;;;;;5061644;28;20048;-74
2022/12/23 05:44:18;;;;;;;0.80;0.80;;;;;;;;;;5047431;28;20041;-74
2022/12/23 05:46:43;;;;;;;0.55;0.50;;;12.00;99.90;;;;;;5056196;28;20052;-74
2022/12/23 05:49:09;;;;;;;0.80;0.80;;;12.20;99.90;;;;;;5049354;28;20024;-74
2022/12/23 05:51:35;;;;;;;1.23;0.88;;;;;;;;;;5047139;28;20025;-74
2022/12/23 05:54:01;;;;;;;0.82;0.63;;;;;;;;;;5048207;28;20405;-74
2022/12/23 05:56:27;;;;;;;0.75;0.75;;;;;;;;;;5060367;28;20029;-74
2022/12/23 05:58:53;;;;;;;1.38;0.95;;;;;;;;;;5047693;28;20506;-74
2022/12/23 06:01:19;;;;;;;1.55;0.80;;;;;;;;;;5055402;28;20025;-74
2022/12/23 06:03:44;;;;;;;2.28;1.50;;;11.80;99.90;;;;;;5058855;28;20032;-74
2022/12/23 06:06:10;;;;;;;1.65;1.35;;;;;;;;;;5055430;28;20661;-74
2022/12/23 06:08:36;;;;;;;1.35;1.25;;;;;;;;;;5057103;28;20021;-74
2022/12/23 06:11:05;;;;;;;1.40;1.08;;;11.50;99.90;;;;;;5053087;28;20056;-74
2022/12/23 06:13:31;;;;;;;0.73;0.73;;;11.60;99.90;;;;;;5054108;28;20533;-74
2022/12/23 06:15:57;;;;;;;1.00;0.80;;;;;;;;;;5050619;28;20052;-73
2022/12/23 06:18:23;;;;;;;2.03;1.20;;;;;;;;;;5052096;28;20116;-74
2022/12/23 06:20:49;;;;;;;3.83;1.30;;;;;;;;;;5050025;28;20534;-74
2022/12/23 06:23:15;;;;;;;1.25;1.02;;;;;;;;;;5057683;28;20020;-74
2022/12/23 06:25:41;;;;;;;4.15;1.20;;;;;;;;;;5048891;28;20027;-74
2022/12/23 06:28:07;;;;;;;1.42;0.98;;;;;;;;;;5065130;28;20493;-74
2022/12/23 06:30:33;;;;;;;4.78;1.55;;;;;;;;;;5051621;28;20485;-74
2022/12/23 06:32:59;;;;;;;1.08;0.80;;;;;;;;;;5054960;28;20577;-74
2022/12/23 06:35:25;;;;;;;3.13;1.70;;;;;;;;;;5051288;28;20124;-73
2022/12/23 06:37:54;;;;;;;2.33;1.10;;;11.70;99.90;;;;;;5055048;28;20074;-74
2022/12/23 06:40:20;;;;;;;1.83;1.10;;;;;;;;;;5051692;28;20237;-74
2022/12/23 06:42:46;;;;;;;1.55;1.10;;;;;;;;;;5012769;28;1144907;-74
2022/12/23 06:45:12;;;;;;;11.52;1.30;;;;;;;;;;5051788;28;20540;-75
2022/12/23 06:47:38;;;;;;;1.08;0.95;;;;;;;;;;5052408;28;20504;-74
2022/12/23 06:50:04;;;;;;;0.90;0.90;;;11.90;99.90;;;;;;5050208;28;20037;-74
2022/12/23 06:52:30;;;;;;;2.35;1.00;;;12.20;99.90;;;;;;5056578;28;20028;-74
2022/12/23 06:54:56;;;;;;;1.13;0.90;;;;;;;;;;5052225;28;21425;-74
2022/12/23 06:57:22;;;;;;;1.00;0.90;;;;;;;;;;5052369;28;20032;-73
2022/12/23 06:59:48;;;;;;;1.90;0.90;;;;;;;;;;5058699;28;20059;-74
2022/12/23 07:02:14;;;;;;;1.63;1.48;;;;;;;;;;5050911;28;20036;-74
2022/12/23 07:04:40;;;;;;;1.65;1.35;;;;;;;;;;5052571;28;20409;-74
2022/12/23 07:07:06;;;;;;;2.15;0.93;;;;;;;;;;5049534;28;20051;-74
2022/12/23 07:09:32;;;;;;;4.72;2.25;;;;;;;;;;5056480;28;20383;-74
2022/12/23 07:11:58;;;;;;;11.52;3.95;;;;;;;;;;5048502;28;20024;-74
2022/12/23 07:14:24;;;;;;;5.85;3.05;;;;;;;;;;5050466;28;20394;-73
2022/12/23 07:16:50;;;;;;;5.68;3.33;;;;;;;;;;5048003;28;20051;-74
2022/12/23 07:19:16;;;;;;;12.30;6.50;;;;;;;;;;5060159;28;20487;-74
2022/12/23 07:21:42;;;;;;;9.55;5.30;;;11.90;99.90;;;;;;5047883;28;20025;-74
2022/12/23 07:24:08;;;;;;;5.38;3.55;;;;;;;;;;5052525;28;20500;-74
2022/12/23 07:26:34;;;;;;;3.88;2.40;;;;;;;;;;5058169;28;20398;-74
2022/12/23 07:29:01;;;;;;;3.75;2.33;;;11.90;99.90;;;;;;5054422;28;20029;-74
2022/12/23 07:31:27;;;;;;;1.90;1.55;;;;;;;;;;5056580;28;20024;-74
2022/12/23 07:33:53;;;;;;;1.25;0.98;;;12.20;99.90;;;;;;5052407;28;20761;-74
2022/12/23 07:36:18;;;;;;;1.98;1.65;;;12.10;99.90;;;;;;5053561;28;20032;-74
2022/12/23 07:38:44;;;;;;;3.33;1.60;;;;;;;;;;5048973;28;20040;-74
2022/12/23 07:41:10;;;;;;;2.80;1.35;;;;;;;;;;5050874;28;20013;-74
2022/12/23 07:43:36;;;;;;;1.83;1.42;;;;;;;;;;5049470;28;20167;-74
2022/12/23 07:46:06;;;;;;;1.90;1.20;;;12.50;99.90;;;;;;5057246;28;20037;-74
2022/12/23 07:48:32;;;;;;;1.67;1.10;;;;;;;;;;5048600;28;20020;-74
2022/12/23 07:51:02;;;;;;;1.85;1.15;;;12.70;99.90;;;;;;5065492;28;20036;-74
2022/12/23 07:53:28;;;;;;;1.70;1.23;;;;;;;;;;5051271;28;20555;-73
2022/12/23 07:55:54;;;;;;;6.63;2.45;;;13.20;99.90;;;;;;5061152;28;20017;-74
2022/12/23 07:58:20;;;;;;;5.03;2.05;;;;;;;;;;5049591;28;20135;-74
2022/12/23 08:00:46;;;;;;;3.75;2.42;;;12.20;99.90;;;;;;5056672;28;20528;-74
2022/12/23 08:03:12;;;;;;;4.03;2.15;;;;;;;;;;5049364;28;20025;-74
2022/12/23 08:05:38;;;;;;;2.17;1.63;;;;;;;;;;5051644;28;20025;-74
2022/12/23 08:08:04;;;;;;;5.18;2.05;;;;;;;;;;5049740;28;20430;-74
2022/12/23 08:10:30;;;;;;;4.90;3.03;;;;;;;;;;5048076;28;20021;-74
2022/12/23 08:12:59;;;;;;;29.38;11.40;;;12.40;99.90;;;;;;5048469;28;20108;-74
2022/12/23 08:15:24;;;;;;;11.10;6.35;;;12.50;99.90;;;;;;5055952;28;20763;-74
2022/12/23 08:17:50;;;;;;;14.80;8.50;;;;;;;;;;5061839;28;20059;-74
2022/12/23 08:20:16;;;;;;;14.40;6.32;;;;;;;;;;5051096;28;20017;-74
2022/12/23 08:22:42;;;;;;;76.72;20.08;;;;;;;;;;5056792;28;20418;-74
2022/12/23 08:25:08;;;;;;;112.72;30.35;;;12.40;99.90;;;;;;5050597;28;20031;-74
2022/12/23 08:27:34;;;;;;;94.72;27.38;;;;;;;;;;5056319;28;20027;-74
2022/12/23 08:30:00;;;;;;;15.07;6.43;;;;;;;;;;5048456;28;20068;-74
2022/12/23 08:32:27;;;;;;;9.80;5.78;;;12.50;99.90;;;;;;5054062;28;20077;-74
2022/12/23 08:34:55;;;;;;;60.95;17.02;;;12.50;99.90;;;;;;5047967;28;20030;-74
2022/12/23 08:37:21;;;;;;;145.07;38.22;;;;;;;;;;5048730;28;20524;-74
2022/12/23 08:39:46;;;;;;;77.28;23.77;;;12.70;99.90;;;;;;5047060;28;20021;-74
2022/12/23 08:42:12;;;;;;;45.72;16.42;;;;;;;;;;5061998;28;20033;-74
2022/12/23 08:44:38;;;;;;;44.22;18.65;;;13.10;99.90;;;;;;5054964;28;20044;-73
2022/12/23 08:47:04;;;;;;;8.45;5.20;;;;;;;;;;5050356;28;20041;-74
2022/12/23 08:49:29;;;;;;;18.98;7.70;;;13.30;99.90;;;;;;5055257;28;20085;-74
2022/12/23 08:51:55;;;;;;;7.63;2.50;;;;;;;;;;5053359;28;20013;-74
2022/12/23 08:54:22;;;;;;;5.00;2.55;;;;;;;;;;5054351;28;20517;-74
2022/12/23 08:56:48;;;;;;;7.63;3.03;;;;;;;;;;5051238;28;20020;-74
2022/12/23 08:59:15;;;;;;;4.15;2.13;;;13.30;99.90;;;;;;5054266;28;20017;-74
2022/12/23 09:01:42;;;;;;;4.10;2.17;;;;;;;;;;5047655;28;20091;-74
2022/12/23 09:04:08;;;;;;;3.90;1.95;;;;;;;;;;5049517;28;20087;-74
2022/12/23 09:06:37;;;;;;;4.03;1.98;;;13.70;99.90;;;;;;5051030;28;20025;-74
2022/12/23 09:09:04;;;;;;;19.27;7.03;;;13.80;99.90;;;;;;5053519;28;20033;-74
2022/12/23 09:11:30;;;;;;;14.88;6.63;;;;;;;;;;5050342;28;20111;-74
2022/12/23 09:13:58;;;;;;;14.40;5.00;;;14.00;99.90;;;;;;5056014;28;20033;-74
2022/12/23 09:16:23;;;;;;;6.35;3.15;;;14.00;99.90;;;;;;5048139;28;20535;-74
2022/12/23 09:18:49;;;;;;;9.98;5.63;;;;;;;;;;5060392;28;20044;-74
2022/12/23 09:21:18;;;;;;;9.77;5.28;;;14.20;99.90;;;;;;5048016;28;20059;-74
2022/12/23 09:23:45;;;;;;;6.70;4.25;;;;;;;;;;5055889;28;20622;-74
2022/12/23 09:26:26;;;;;;;8.45;3.33;;;14.70;99.90;;;;;;5046271;28;20486;-74
2022/12/23 09:28:52;;;;;;;5.25;2.97;;;14.10;99.90;;;;;;5047857;28;20721;-74
2022/12/23 09:31:18;;;;;;;4.32;2.28;;;14.30;99.90;;;;;;5046380;28;20029;-74
2022/12/23 09:33:47;;;;;;;4.63;1.83;;;14.30;99.90;;;;;;5058258;28;20032;-74
2022/12/23 09:36:13;;;;;;;2.33;1.60;;;;;;;;;;5048024;28;20071;-73
2022/12/23 09:38:39;;;;;;;2.42;1.90;;;;;;;;;;5061154;28;20081;-74
2022/12/23 09:41:28;;;;;;;3.28;2.00;;;14.90;99.90;;;;;;5060884;28;20495;-74
2022/12/23 09:44:27;;;;;;;8.07;3.20;;;14.70;99.90;;;;;;5059125;28;20076;-74
2022/12/23 09:46:57;;;;;;;6.50;2.85;;;14.60;99.90;;;;;;5052847;28;20037;-74
2022/12/23 09:49:23;;;;;;;3.67;1.88;;;;;;;;;;5056208;28;20107;-74
2022/12/23 09:51:54;;;;;;;2.08;1.58;;;15.20;99.90;;;;;;5051829;28;20108;-74
2022/12/23 09:54:28;;;;;;;6.57;2.80;;;14.70;99.90;;;;;;5054336;28;20677;-74
2022/12/23 09:57:07;;;;;;;6.05;3.03;;;14.60;99.90;;;;;;5049915;28;20021;-74
2022/12/23 09:59:33;;;;;;;9.85;5.38;;;;;;;;;;5052068;28;20017;-74
2022/12/23 10:02:10;;;;;;;11.38;4.63;;;14.70;99.90;;;;;;5049340;28;20025;-74
2022/12/23 10:04:54;;;;;;;11.57;4.40;;;14.70;99.90;;;;;;5062296;28;20265;-74
2022/12/23 10:07:26;;;;;;;12.88;5.60;;;14.60;99.90;;;;;;5057749;28;20021;-74
2022/12/23 10:09:56;;;;;;;6.90;3.55;;;14.60;99.90;;;;;;5060013;28;20025;-74
2022/12/23 10:12:38;;;;;;;8.32;2.97;;;14.60;99.90;;;;;;5056054;28;20033;-74
2022/12/23 10:15:29;;;;;;;3.22;2.45;;;14.70;99.90;;;;;;5057605;28;20028;-74
2022/12/23 10:18:03;;;;;;;2.38;1.50;;;15.00;99.90;;;;;;5049800;28;20047;-73
2022/12/23 10:20:40;;;;;;;2.58;1.45;;;14.70;99.90;;;;;;5056146;28;20096;-74
2022/12/23 10:23:16;;;;;;;1.63;1.13;;;17.80;99.90;;;;;;5036826;28;20641;-74
2022/12/23 10:25:51;;;;;;;6.32;2.85;;;14.70;99.90;;;;;;5051495;28;20550;-74
2022/12/23 10:28:18;;;;;;;6.05;4.00;;;14.70;99.90;;;;;;5049034;28;20029;-74
2022/12/23 10:30:53;;;;;;;5.85;2.72;;;14.60;99.90;;;;;;5060625;28;20024;-74
2022/12/23 10:33:28;;;;;;;9.02;3.85;;;14.50;99.90;;;;;;5049020;28;20075;-74
2022/12/23 10:36:03;;;;;;;9.45;2.25;;;14.30;99.90;;;;;;5056048;28;20024;-74
2022/12/23 10:38:34;;;;;;;6.07;3.33;;;14.50;99.90;;;;;;5052767;28;20036;-74
2022/12/23 10:41:28;;;;;;;4.00;1.75;;;14.40;99.90;;;;;;5055539;28;20021;-73
2022/12/23 10:43:56;;;;;;;5.43;2.25;;;14.30;99.90;;;;;;5049722;28;20454;-74
2022/12/23 10:46:33;;;;;;;5.25;3.00;;;14.30;99.90;;;;;;5056684;28;20500;-75
2022/12/23 10:49:20;;;;;;;;;;;14.30;99.90;;;;;;5035734;28;20029;-74
2022/12/23 10:51:46;;;;;;;3.83;2.20;;;;;;;;;;5052430;28;19935;-74
2022/12/23 10:54:21;;;;;;;2.60;1.25;;;14.20;99.90;;;;;;5048576;28;20029;-74
2022/12/23 10:56:47;;;;;;;1.48;1.30;;;;;;;;;;5061043;28;20020;-74
2022/12/23 10:59:24;;;;;;;4.07;1.45;;;14.30;99.90;;;;;;5057363;28;20127;-74
2022/12/23 11:02:11;;;;;;;8.10;4.10;;;14.30;99.90;;;;;;5061088;28;20463;-74
2022/12/23 11:04:38;;;;;;;;;;;14.30;99.90;;;;;;5053178;28;20025;-74
2022/12/23 11:07:07;;;;;;;2.03;1.05;;;14.40;99.90;;;;;;5059231;28;19990;-74
2022/12/23 11:09:50;;;;;;;2.17;1.15;;;14.60;99.90;;;;;;5051441;28;20032;-74
2022/12/23 11:12:21;;;;;;;2.33;1.08;;;15.10;99.90;;;;;;5056555;28;20067;-74
2022/12/23 11:14:53;;;;;;;1.85;1.25;;;11.80;99.90;;;;;;5047863;28;20025;-74
2022/12/23 11:17:27;;;;;;;1.30;1.00;;;15.20;99.90;;;;;;5054084;28;20028;-74
2022/12/23 11:20:10;;;;;;;1.00;0.93;;;15.30;99.90;;;;;;5047946;28;20440;-74
2022/12/23 11:22:49;;;;;;;5.63;2.05;;;15.20;99.90;;;;;;5061183;28;20060;-74
2022/12/23 11:25:29;;;;;;;2.38;1.42;;;15.30;99.90;;;;;;5048256;28;20041;-74
2022/12/23 11:27:57;;;;;;;4.40;1.48;;;15.10;99.90;;;;;;5061298;28;20039;-74
2022/12/23 11:30:23;;;;;;;1.10;0.98;;;15.20;99.90;;;;;;5053452;28;20024;-74
2022/12/23 11:32:50;;;;;;;2.22;1.60;;;15.20;99.90;;;;;;5053734;28;20512;-74
2022/12/23 11:35:36;;;;;;;0.93;0.60;;;14.70;99.90;;;;;;5052984;28;20028;-74
2022/12/23 11:38:02;;;;;;;2.08;1.05;;;;;;;;;;5053640;28;20255;-74
2022/12/23 11:40:35;;;;;;;1.35;1.13;;;15.60;99.90;;;;;;5050125;28;20748;-74
2022/12/23 11:43:03;;;;;;;4.60;1.08;;;15.60;99.50;;;;;;5053920;28;20060;-75
2022/12/23 11:45:34;;;;;;;5.78;2.78;;;15.70;98.80;;;;;;5048744;28;20056;-74
2022/12/23 11:48:01;;;;;;;4.25;2.05;;;15.80;99.90;;;;;;5049906;28;20083;-74
2022/12/23 11:50:35;;;;;;;3.70;2.25;;;15.60;99.90;;;;;;5047908;28;20446;-74
2022/12/23 11:53:10;;;;;;;6.95;2.47;;;15.40;99.90;;;;;;5059180;28;20052;-74
2022/12/23 11:55:42;;;;;;;3.42;1.60;;;15.30;99.90;;;;;;5036611;28;20052;-74
2022/12/23 11:58:17;;;;;;;3.22;1.40;;;15.10;99.90;;;;;;5050609;28;20031;-74
2022/12/23 12:00:54;;;;;;;10.52;4.80;;;15.10;99.90;;;;;;5038627;28;20017;-74
2022/12/23 12:03:33;;;;;;;6.88;3.38;;;15.50;99.90;;;;;;5053580;28;20502;-74
2022/12/23 12:06:03;;;;;;;4.80;2.75;;;15.90;99.90;;;;;;5039893;28;20425;-74
2022/12/23 12:08:36;;;;;;;3.53;2.10;;;16.00;99.90;;;;;;5047664;28;20506;-75
2022/12/23 12:11:15;;;;;;;8.85;2.65;;;16.30;99.20;;;;;;5043088;28;20405;-74
2022/12/23 12:13:46;;;;;;;5.10;1.25;;;16.20;99.90;;;;;;5047771;28;20045;-74
2022/12/23 12:16:12;;;;;;;2.10;1.20;;;;;;;;;;5047109;28;20166;-74
2022/12/23 12:18:40;;;;;;;3.97;1.15;;;15.90;99.90;;;;;;5057036;28;20386;-74
2022/12/23 12:21:11;;;;;;;1.63;1.13;;;13.40;96.70;;;;;;5048690;28;20025;-74
2022/12/23 12:23:47;;;;;;;1.55;0.82;;;16.00;95.20;;;;;;5050925;28;20033;-74
2022/12/23 12:26:32;;;;;;;0.77;0.63;;;16.00;95.80;;;;;;5057332;28;20017;-74
2022/12/23 12:29:20;;;;;;;1.60;0.70;;;16.00;96.10;;;;;;5053888;28;20383;-74
2022/12/23 12:31:52;;;;;;;1.90;0.95;;;16.10;99.90;;;;;;5039333;28;20456;-74
2022/12/23 12:34:48;;;;;;;1.38;0.82;;;16.40;99.60;;;;;;5050954;28;20049;-74
2022/12/23 12:37:44;;;;;;;6.68;3.13;;;16.30;94.00;;;;;;5043706;28;20056;-74
2022/12/23 12:40:10;;;;;;;4.25;2.28;;;;;;;;;;5054196;28;20020;-74
2022/12/23 12:42:41;;;;;;;2.88;1.25;;;16.10;95.60;;;;;;5046999;28;20071;-74
2022/12/23 12:45:18;;;;;;;3.80;1.92;;;16.30;99.90;;;;;;5059153;28;20032;-74
2022/12/23 12:48:04;;;;;;;;;;;16.20;96.40;;;;;;5047548;28;20033;-75
2022/12/23 12:50:33;;;;;;;2.90;1.20;;;16.70;92.70;;;;;;5056395;28;19965;-74
2022/12/23 12:53:07;;;;;;;1.95;1.23;;;16.90;99.90;;;;;;5053263;28;20057;-74
2022/12/23 12:55:36;;;;;;;1.30;0.80;;;16.90;91.70;;;;;;5055871;28;20052;-74
2022/12/23 12:58:02;;;;;;;1.33;1.02;;;;;;;;;;5046341;28;20056;-74
2022/12/23 13:00:35;;;;;;;3.00;0.93;;;17.30;90.80;;;;;;5052046;28;20021;-74
2022/12/23 13:03:38;;;;;;;1.80;0.90;;;17.60;96.30;;;;;;5050547;28;20083;-74
2022/12/23 13:06:25;;;;;;;2.67;0.80;;;17.40;86.10;;;;;;5049303;28;20092;-74
2022/12/23 13:09:17;;;;;;;;;;;17.40;85.40;;;;;;5048598;28;20043;-74
2022/12/23 13:11:48;;;;;;;1.60;0.90;;;16.90;92.00;;;;;;5038988;28;19908;-74
2022/12/23 13:14:21;;;;;;;2.33;0.80;;;17.30;96.00;;;;;;5051697;28;20036;-74
2022/12/23 13:17:16;;;;;;;1.38;0.70;;;17.30;87.20;;;;;;5069190;28;20024;-74
2022/12/23 13:20:07;;;;;;;2.03;0.90;;;17.10;87.90;;;;;;5053135;28;20027;-74
2022/12/23 13:22:33;;;;;;;0.55;0.47;;;;;;;;;;5059705;28;20025;-74
2022/12/23 13:24:59;;;;;;;1.25;0.73;;;;;;;;;;5053844;28;20031;-74
2022/12/23 13:27:33;;;;;;;1.52;1.08;;;16.80;88.90;;;;;;5056471;28;20025;-74
2022/12/23 13:29:59;;;;;;;1.60;0.70;;;;;;;;;;5053938;28;20024;-74
2022/12/23 13:32:48;;;;;;;1.25;1.05;;;16.40;91.10;;;;;;5053595;28;20363;-74
2022/12/23 13:35:14;;;;;;;1.38;0.65;;;;;;;;;;5048433;28;20029;-74
2022/12/23 13:37:49;;;;;;;3.35;1.10;;;16.10;91.60;;;;;;5040373;28;20135;-74
2022/12/23 13:40:42;;;;;;;2.17;1.17;;;15.80;97.80;;;;;;5051565;28;20393;-74
2022/12/23 13:43:40;;;;;;;3.92;0.90;;;16.10;93.30;;;;;;5042047;28;20140;-74
2022/12/23 13:46:24;;;;;;;1.63;1.50;;;15.70;94.90;;;;;;5053626;28;20021;-74
2022/12/23 13:49:06;;;;;;;1.30;0.63;;;16.00;92.90;;;;;;5060137;28;20025;-74
2022/12/23 13:51:42;;;;;;;2.58;1.10;;;16.40;96.20;;;;;;5056297;28;20059;-74
2022/12/23 13:54:48;;;;;;;3.27;0.80;;;16.20;92.60;;;;;;5057709;28;20039;-74
2022/12/23 13:57:26;;;;;;;1.58;0.60;;;16.30;92.30;;;;;;5011186;28;20597;-74
2022/12/23 14:00:21;;;;;;;2.42;1.02;;;16.30;92.10;;;;;;5009733;28;20061;-74
2022/12/23 14:03:01;;;;;;;1.10;0.60;;;16.30;91.80;;;;;;4998297;28;20019;-74
2022/12/23 14:05:27;;;;;;;1.30;1.00;;;;;;;;;;5006674;28;20470;-74
2022/12/23 14:07:53;;;;;;;4.57;1.00;;;16.00;97.70;;;;;;5003096;28;20026;-74
2022/12/23 14:10:22;;;;;;;1.58;1.38;;;16.20;97.10;;;;;;5006522;28;20083;-74